createdAt,value
2023-03-17T00:01:56.121Z,-1.00
2023-03-17T00:04:25.143Z,-1.10
2023-03-17T00:06:53.110Z,-1.20
2023-03-17T00:09:21.250Z,-1.20
2023-03-17T00:11:49.018Z,-1.10
2023-03-17T00:14:16.823Z,-1.10
2023-03-17T00:16:48.555Z,-1.00
2023-03-17T00:19:31.434Z,-1.00
2023-03-17T00:22:00.097Z,-1.10
2023-03-17T00:24:28.647Z,-1.10
2023-03-17T00:26:56.033Z,-1.20
2023-03-17T00:29:24.044Z,-1.20
2023-03-17T00:31:51.590Z,-1.20
2023-03-17T00:34:19.808Z,-1.30
2023-03-17T00:36:48.672Z,-1.40
2023-03-17T00:41:43.803Z,-1.40
2023-03-17T00:44:12.026Z,-1.40
2023-03-17T00:46:41.650Z,-1.30
2023-03-17T00:49:21.527Z,-1.20
2023-03-17T00:51:49.824Z,-1.20
2023-03-17T00:54:18.711Z,-1.20
2023-03-17T00:56:46.802Z,-1.10
2023-03-17T00:59:27.605Z,-1.10
2023-03-17T01:01:55.481Z,-1.10
2023-03-17T01:04:23.088Z,-1.00
2023-03-17T01:06:52.246Z,-0.90
2023-03-17T01:09:24.231Z,-0.90
2023-03-17T01:11:51.443Z,-1.00
2023-03-17T01:14:19.067Z,-1.20
2023-03-17T01:16:47.763Z,-1.20
2023-03-17T01:19:15.594Z,-1.30
2023-03-17T01:21:42.802Z,-1.60
2023-03-17T01:24:10.229Z,-1.70
2023-03-17T01:26:37.815Z,-1.70
2023-03-17T01:29:07.928Z,-1.80
2023-03-17T01:31:36.360Z,-1.90
2023-03-17T01:34:06.217Z,-2.00
2023-03-17T01:36:34.360Z,-2.00
2023-03-17T01:39:01.789Z,-1.80
2023-03-17T01:41:30.005Z,-1.80
2023-03-17T01:43:57.620Z,-1.80
2023-03-17T01:46:34.121Z,-1.70
2023-03-17T01:49:40.212Z,-1.60
2023-03-17T01:52:14.723Z,-1.50
2023-03-17T01:54:53.703Z,-1.50
2023-03-17T01:57:37.195Z,-1.60
2023-03-17T02:00:31.005Z,-1.50
2023-03-17T02:02:59.040Z,-1.50
2023-03-17T02:05:31.209Z,-1.70
2023-03-17T02:07:58.730Z,-1.80
2023-03-17T02:10:28.731Z,-1.90
2023-03-17T02:13:00.377Z,-1.80
2023-03-17T02:15:41.000Z,-1.90
2023-03-17T02:18:09.618Z,-1.90
2023-03-17T02:20:37.025Z,-2.00
2023-03-17T02:23:06.503Z,-2.00
2023-03-17T02:25:36.390Z,-2.00
2023-03-17T02:28:16.306Z,-2.00
2023-03-17T02:30:44.903Z,-1.90
2023-03-17T02:33:12.371Z,-1.90
2023-03-17T02:35:41.525Z,-1.90
2023-03-17T02:38:08.776Z,-1.80
2023-03-17T02:40:36.051Z,-1.70
2023-03-17T02:43:04.220Z,-1.70
2023-03-17T02:45:31.959Z,-1.60
2023-03-17T02:48:00.125Z,-1.70
2023-03-17T02:50:29.210Z,-1.80
2023-03-17T02:52:57.070Z,-1.80
2023-03-17T02:55:24.341Z,-1.80
2023-03-17T02:57:51.620Z,-1.90
2023-03-17T03:00:19.651Z,-1.90
2023-03-17T03:02:47.103Z,-2.00
2023-03-17T03:05:14.731Z,-2.10
2023-03-17T03:07:42.436Z,-2.10
2023-03-17T03:10:10.535Z,-2.10
2023-03-17T03:12:38.082Z,-2.00
2023-03-17T03:15:05.752Z,-2.00
2023-03-17T03:17:33.438Z,-1.80
2023-03-17T03:20:00.732Z,-1.90
2023-03-17T03:22:27.969Z,-1.90
2023-03-17T03:24:55.182Z,-2.10
2023-03-17T03:27:22.698Z,-2.20
2023-03-17T03:29:49.876Z,-2.20
2023-03-17T03:32:17.164Z,-2.20
2023-03-17T03:34:44.400Z,-2.20
2023-03-17T03:37:11.706Z,-2.20
2023-03-17T03:39:39.164Z,-2.20
2023-03-17T03:42:07.101Z,-2.30
2023-03-17T03:44:34.462Z,-2.30
2023-03-17T03:47:01.848Z,-2.30
2023-03-17T03:49:29.159Z,-2.30
2023-03-17T03:51:56.477Z,-2.30
2023-03-17T03:54:23.921Z,-2.30
2023-03-17T03:56:51.106Z,-2.20
2023-03-17T03:59:18.679Z,-2.10
2023-03-17T04:01:46.184Z,-2.10
2023-03-17T04:04:13.388Z,-2.00
2023-03-17T04:06:40.870Z,-1.90
2023-03-17T04:09:09.360Z,-1.90
2023-03-17T04:11:36.857Z,-1.90
2023-03-17T04:14:04.234Z,-1.80
2023-03-17T04:16:32.035Z,-1.80
2023-03-17T04:18:59.305Z,-2.00
2023-03-17T04:21:26.577Z,-2.20
2023-03-17T04:23:53.788Z,-2.40
2023-03-17T04:26:23.142Z,-2.50
2023-03-17T04:28:50.309Z,-2.40
2023-03-17T04:31:17.511Z,-2.30
2023-03-17T04:33:44.720Z,-2.10
2023-03-17T04:36:19.504Z,-2.20
2023-03-17T04:38:46.793Z,-2.30
2023-03-17T04:41:14.690Z,-2.50
2023-03-17T04:43:44.731Z,-2.50
2023-03-17T04:46:12.155Z,-2.50
2023-03-17T04:48:39.780Z,-2.50
2023-03-17T04:51:06.939Z,-2.40
2023-03-17T04:53:34.217Z,-2.50
2023-03-17T04:56:01.498Z,-2.70
2023-03-17T04:58:31.054Z,-2.80
2023-03-17T05:00:59.404Z,-2.70
2023-03-17T05:03:28.542Z,-2.60
2023-03-17T05:05:57.680Z,-2.60
2023-03-17T05:08:26.185Z,-2.60
2023-03-17T05:10:53.327Z,-2.60
2023-03-17T05:13:20.905Z,-2.60
2023-03-17T05:15:49.599Z,-2.60
2023-03-17T05:18:17.590Z,-2.60
2023-03-17T05:20:45.089Z,-2.70
2023-03-17T05:23:12.389Z,-2.70
2023-03-17T05:25:40.577Z,-2.80
2023-03-17T05:28:09.021Z,-2.80
2023-03-17T05:30:36.786Z,-2.80
2023-03-17T05:33:04.594Z,-2.80
2023-03-17T05:35:32.259Z,-2.70
2023-03-17T05:37:59.563Z,-2.70
2023-03-17T05:40:26.821Z,-2.80
2023-03-17T05:42:54.042Z,-2.80
2023-03-17T05:45:21.408Z,-2.80
2023-03-17T05:47:48.610Z,-2.90
2023-03-17T05:50:16.064Z,-2.90
2023-03-17T05:52:43.510Z,-2.80
2023-03-17T05:55:11.696Z,-2.70
2023-03-17T05:57:38.885Z,-2.50
2023-03-17T06:00:06.583Z,-2.30
2023-03-17T06:02:34.269Z,-2.20
2023-03-17T06:05:02.488Z,-2.10
2023-03-17T06:07:38.033Z,-2.00
2023-03-17T06:10:16.134Z,-1.80
2023-03-17T06:12:43.326Z,-1.70
2023-03-17T06:15:10.900Z,-1.60
2023-03-17T06:17:38.530Z,-1.40
2023-03-17T06:20:06.160Z,-1.20
2023-03-17T06:22:33.342Z,-1.10
2023-03-17T06:25:01.017Z,-1.00
2023-03-17T06:27:28.317Z,-0.80
2023-03-17T06:29:55.836Z,-0.70
2023-03-17T06:32:23.574Z,-0.50
2023-03-17T06:34:51.897Z,-0.30
2023-03-17T06:37:19.655Z,-0.20
2023-03-17T06:39:48.118Z,-0.10
2023-03-17T06:42:15.799Z,0.00
2023-03-17T06:44:43.057Z,0.10
2023-03-17T06:47:10.370Z,0.10
2023-03-17T06:49:37.535Z,0.10
2023-03-17T06:52:04.872Z,0.20
2023-03-17T06:54:32.676Z,0.20
2023-03-17T06:56:59.995Z,0.20
2023-03-17T06:59:27.695Z,0.20
2023-03-17T07:01:54.970Z,0.20
2023-03-17T07:04:22.286Z,0.30
2023-03-17T07:06:50.165Z,0.40
2023-03-17T07:09:17.615Z,0.40
2023-03-17T07:11:44.952Z,0.40
2023-03-17T07:14:12.218Z,0.50
2023-03-17T07:16:40.275Z,0.50
2023-03-17T07:19:07.626Z,0.50
2023-03-17T07:21:34.817Z,0.70
2023-03-17T07:24:02.586Z,0.80
2023-03-17T07:26:29.806Z,1.00
2023-03-17T07:28:57.210Z,1.10
2023-03-17T07:31:25.519Z,1.30
2023-03-17T07:33:52.890Z,1.50
2023-03-17T07:36:20.048Z,1.70
2023-03-17T07:38:47.342Z,1.80
2023-03-17T07:41:14.556Z,2.00
2023-03-17T07:43:41.856Z,2.00
2023-03-17T07:46:09.262Z,2.20
2023-03-17T07:48:40.996Z,2.30
2023-03-17T07:51:14.433Z,2.40
2023-03-17T07:53:42.070Z,2.60
2023-03-17T07:56:09.832Z,2.70
2023-03-17T07:58:37.140Z,2.80
2023-03-17T08:01:05.163Z,2.80
2023-03-17T08:03:32.490Z,2.80
2023-03-17T08:06:00.747Z,2.90
2023-03-17T08:08:28.592Z,3.20
2023-03-17T08:11:03.796Z,3.30
2023-03-17T08:13:32.224Z,3.50
2023-03-17T08:15:59.765Z,3.60
2023-03-17T08:18:27.317Z,3.60
2023-03-17T08:20:54.556Z,3.70
2023-03-17T08:23:22.505Z,3.80
2023-03-17T08:25:49.641Z,3.90
2023-03-17T08:28:16.981Z,4.10
2023-03-17T08:30:45.072Z,4.10
2023-03-17T08:33:12.695Z,4.20
2023-03-17T08:35:42.108Z,4.40
2023-03-17T08:38:09.953Z,4.60
2023-03-17T08:40:40.016Z,4.60
2023-03-17T08:43:07.825Z,4.60
2023-03-17T08:45:35.444Z,4.80
2023-03-17T08:48:03.274Z,4.80
2023-03-17T08:50:31.169Z,4.80
2023-03-17T08:52:58.492Z,5.00
2023-03-17T08:55:25.628Z,5.00
2023-03-17T08:57:53.094Z,5.20
2023-03-17T09:00:21.015Z,5.20
2023-03-17T09:02:48.994Z,5.30
2023-03-17T09:05:17.525Z,5.40
2023-03-17T09:07:45.122Z,5.50
2023-03-17T09:10:14.830Z,5.50
2023-03-17T09:12:42.900Z,5.60
2023-03-17T09:15:12.225Z,5.80
2023-03-17T09:17:39.581Z,6.00
2023-03-17T09:20:07.289Z,6.10
2023-03-17T09:22:34.515Z,6.30
2023-03-17T09:25:01.976Z,6.30
2023-03-17T09:27:29.183Z,6.40
2023-03-17T09:29:56.413Z,6.50
2023-03-17T09:32:23.538Z,6.60
2023-03-17T09:34:51.755Z,6.90
2023-03-17T09:37:18.959Z,7.10
2023-03-17T09:39:46.928Z,7.10
2023-03-17T09:42:24.697Z,6.80
2023-03-17T09:45:01.003Z,7.20
2023-03-17T09:47:58.497Z,7.40
2023-03-17T09:50:38.212Z,7.50
2023-03-17T09:53:12.343Z,7.60
2023-03-17T09:55:39.728Z,7.50
2023-03-17T09:58:11.825Z,7.50
2023-03-17T10:00:39.489Z,7.60
2023-03-17T10:03:10.715Z,7.60
2023-03-17T10:05:38.894Z,7.70
2023-03-17T10:08:41.358Z,7.90
2023-03-17T10:11:46.058Z,7.80
2023-03-17T10:14:31.532Z,7.90
2023-03-17T10:17:11.851Z,8.10
2023-03-17T10:19:59.859Z,8.10
2023-03-17T10:22:35.163Z,8.10
2023-03-17T10:25:07.696Z,8.40
2023-03-17T10:27:37.561Z,8.20
2023-03-17T10:30:13.544Z,8.30
2023-03-17T10:32:41.161Z,8.00
2023-03-17T10:35:10.795Z,7.90
2023-03-17T10:37:38.450Z,7.80
2023-03-17T10:40:10.434Z,7.80
2023-03-17T10:42:49.590Z,8.00
2023-03-17T10:45:43.268Z,8.10
2023-03-17T10:48:18.730Z,8.20
2023-03-17T10:50:48.641Z,8.20
2023-03-17T10:53:32.266Z,8.00
2023-03-17T10:56:20.368Z,8.10
2023-03-17T10:58:49.934Z,8.20
2023-03-17T11:01:28.110Z,8.10
2023-03-17T11:03:56.237Z,8.20
2023-03-17T11:06:44.281Z,8.20
2023-03-17T11:09:18.526Z,8.50
2023-03-17T11:11:58.976Z,8.40
2023-03-17T11:14:29.589Z,8.50
2023-03-17T11:17:02.304Z,8.40
2023-03-17T11:19:50.470Z,8.40
2023-03-17T11:22:26.978Z,8.50
2023-03-17T11:25:05.689Z,8.50
2023-03-17T11:27:52.165Z,8.60
2023-03-17T11:30:19.513Z,8.70
2023-03-17T11:33:07.585Z,8.80
2023-03-17T11:35:53.277Z,8.80
2023-03-17T11:38:20.601Z,8.90
2023-03-17T11:41:02.301Z,8.90
2023-03-17T11:43:52.217Z,9.00
2023-03-17T11:46:30.980Z,8.90
2023-03-17T11:49:12.218Z,9.10
2023-03-17T11:52:11.374Z,9.00
2023-03-17T11:55:04.421Z,8.90
2023-03-17T11:58:06.652Z,9.20
2023-03-17T12:00:45.915Z,9.10
2023-03-17T12:03:38.501Z,9.20
2023-03-17T12:06:15.585Z,9.40
2023-03-17T12:09:07.808Z,9.30
2023-03-17T12:11:47.316Z,9.30
2023-03-17T12:14:19.210Z,9.10
2023-03-17T12:16:57.049Z,9.10
2023-03-17T12:19:37.622Z,9.20
2023-03-17T12:22:29.079Z,9.20
2023-03-17T12:25:39.121Z,9.30
2023-03-17T12:28:14.386Z,9.50
2023-03-17T12:30:56.048Z,9.30
2023-03-17T12:33:48.683Z,9.30
2023-03-17T12:36:17.771Z,9.30
2023-03-17T12:39:19.023Z,9.50
2023-03-17T12:41:56.814Z,9.60
2023-03-17T12:44:35.629Z,9.60
2023-03-17T12:47:22.969Z,9.60
2023-03-17T12:50:11.554Z,9.60
2023-03-17T12:53:02.785Z,9.70
2023-03-17T12:55:51.220Z,9.90
2023-03-17T12:58:41.885Z,10.10
2023-03-17T13:01:32.451Z,10.00
2023-03-17T13:04:11.685Z,10.20
2023-03-17T13:06:42.669Z,10.10
2023-03-17T13:09:31.600Z,10.30
2023-03-17T13:12:01.208Z,10.20
2023-03-17T13:14:44.332Z,10.10
2023-03-17T13:17:17.895Z,10.10
2023-03-17T13:19:57.558Z,10.20
2023-03-17T13:22:40.406Z,10.30
2023-03-17T13:25:54.725Z,10.30
2023-03-17T13:28:41.252Z,10.30
2023-03-17T13:31:36.784Z,10.20
2023-03-17T13:34:18.061Z,10.40
2023-03-17T13:36:54.107Z,10.50
2023-03-17T13:39:28.097Z,10.50
2023-03-17T13:42:19.391Z,10.60
2023-03-17T13:45:16.306Z,10.60
2023-03-17T13:47:44.581Z,10.60
2023-03-17T13:50:33.614Z,10.80
2023-03-17T13:53:10.497Z,10.90
2023-03-17T13:55:42.776Z,10.70
2023-03-17T13:58:11.867Z,10.60
2023-03-17T14:00:41.540Z,10.70
2023-03-17T14:03:34.003Z,10.60
2023-03-17T14:06:05.798Z,10.70
2023-03-17T14:08:53.754Z,10.90
2023-03-17T14:11:45.349Z,11.00
2023-03-17T14:14:33.378Z,11.10
2023-03-17T14:17:19.230Z,11.20
2023-03-17T14:20:16.244Z,11.50
2023-03-17T14:22:46.452Z,11.70
2023-03-17T14:25:22.960Z,11.60
2023-03-17T14:27:56.978Z,11.60
2023-03-17T14:30:29.711Z,11.60
2023-03-17T14:33:03.578Z,11.80
2023-03-17T14:35:43.364Z,11.70
2023-03-17T14:38:24.028Z,11.60
2023-03-17T14:41:04.386Z,11.70
2023-03-17T14:43:33.264Z,11.70
2023-03-17T14:46:04.492Z,11.80
2023-03-17T14:48:37.131Z,11.70
2023-03-17T14:51:09.049Z,11.50
2023-03-17T14:53:40.954Z,11.60
2023-03-17T14:56:08.239Z,11.80
2023-03-17T14:58:43.922Z,11.60
2023-03-17T15:01:39.703Z,11.50
2023-03-17T15:04:34.180Z,11.60
2023-03-17T15:07:07.611Z,11.70
2023-03-17T15:09:34.792Z,11.60
2023-03-17T15:12:18.582Z,11.60
2023-03-17T15:14:46.686Z,11.80
2023-03-17T15:17:28.812Z,11.60
2023-03-17T15:20:00.482Z,11.80
2023-03-17T15:23:02.965Z,11.70
2023-03-17T15:25:43.982Z,11.70
2023-03-17T15:28:17.101Z,11.60
2023-03-17T15:30:48.213Z,11.50
2023-03-17T15:33:38.930Z,11.40
2023-03-17T15:36:06.530Z,11.40
2023-03-17T15:38:34.481Z,11.40
2023-03-17T15:41:02.036Z,11.40
2023-03-17T15:43:29.191Z,11.30
2023-03-17T15:46:05.647Z,11.20
2023-03-17T15:48:36.172Z,11.10
2023-03-17T15:51:06.152Z,11.10
2023-03-17T15:53:33.436Z,11.10
2023-03-17T15:56:00.958Z,11.00
2023-03-17T15:58:43.385Z,10.90
2023-03-17T16:01:29.019Z,10.90
2023-03-17T16:04:14.901Z,10.90
2023-03-17T16:07:00.710Z,10.90
2023-03-17T16:09:27.858Z,10.80
2023-03-17T16:11:55.095Z,10.70
2023-03-17T16:14:22.258Z,10.60
2023-03-17T16:16:49.509Z,10.40
2023-03-17T16:19:23.451Z,10.30
2023-03-17T16:21:51.376Z,10.30
2023-03-17T16:24:22.063Z,10.00
2023-03-17T16:26:50.466Z,9.90
2023-03-17T16:29:20.549Z,9.80
2023-03-17T16:31:50.264Z,9.70
2023-03-17T16:34:20.825Z,9.60
2023-03-17T16:36:48.553Z,9.40
2023-03-17T16:39:22.423Z,9.30
2023-03-17T16:41:50.702Z,9.10
2023-03-17T16:44:20.529Z,8.90
2023-03-17T16:46:48.557Z,8.60
2023-03-17T16:49:18.282Z,8.40
2023-03-17T16:51:45.984Z,8.20
2023-03-17T16:54:13.334Z,8.20
2023-03-17T16:56:42.047Z,8.20
2023-03-17T16:59:20.331Z,8.00
2023-03-17T17:01:47.597Z,7.90
2023-03-17T17:04:14.845Z,7.70
2023-03-17T17:06:42.054Z,7.50
2023-03-17T17:09:09.377Z,7.40
2023-03-17T17:11:36.763Z,7.30
2023-03-17T17:14:04.111Z,7.20
2023-03-17T17:16:35.039Z,7.10
2023-03-17T17:19:04.362Z,7.10
2023-03-17T17:21:32.827Z,7.10
2023-03-17T17:24:00.353Z,7.00
2023-03-17T17:26:27.685Z,7.00
2023-03-17T17:28:54.906Z,7.00
2023-03-17T17:31:22.153Z,6.90
2023-03-17T17:33:49.412Z,6.80
2023-03-17T17:36:17.638Z,6.70
2023-03-17T17:38:45.114Z,6.60
2023-03-17T17:41:13.187Z,6.60
2023-03-17T17:43:41.224Z,6.40
2023-03-17T17:46:26.387Z,6.20
2023-03-17T17:48:53.558Z,6.00
2023-03-17T17:51:20.942Z,6.00
2023-03-17T17:53:48.180Z,6.00
2023-03-17T17:56:16.786Z,6.00
2023-03-17T17:58:44.599Z,6.00
2023-03-17T18:01:13.907Z,5.90
2023-03-17T18:03:42.906Z,5.90
2023-03-17T18:06:11.730Z,5.80
2023-03-17T18:08:39.863Z,5.70
2023-03-17T18:11:07.204Z,5.70
2023-03-17T18:13:36.163Z,5.60
2023-03-17T18:16:04.125Z,5.60
2023-03-17T18:18:32.615Z,5.50
2023-03-17T18:20:59.993Z,5.30
2023-03-17T18:23:28.045Z,5.20
2023-03-17T18:26:03.406Z,5.20
2023-03-17T18:28:30.798Z,5.20
2023-03-17T18:31:07.146Z,5.10
2023-03-17T18:33:34.414Z,5.10
2023-03-17T18:36:05.990Z,5.10
2023-03-17T18:38:33.957Z,5.10
2023-03-17T18:41:02.043Z,5.10
2023-03-17T18:43:29.248Z,5.10
2023-03-17T18:45:56.471Z,5.00
2023-03-17T18:48:23.888Z,4.90
2023-03-17T18:50:51.443Z,4.80
2023-03-17T18:53:18.606Z,4.70
2023-03-17T18:55:45.867Z,4.40
2023-03-17T18:58:13.064Z,4.40
2023-03-17T19:00:40.743Z,4.40
2023-03-17T19:03:08.153Z,4.30
2023-03-17T19:05:37.733Z,3.90
2023-03-17T19:08:05.057Z,3.90
2023-03-17T19:10:32.561Z,3.70
2023-03-17T19:12:59.993Z,3.70
2023-03-17T19:15:27.339Z,3.80
2023-03-17T19:17:54.522Z,3.80
2023-03-17T19:20:22.113Z,3.70
2023-03-17T19:22:50.958Z,3.70
2023-03-17T19:25:18.178Z,3.70
2023-03-17T19:27:45.964Z,3.80
2023-03-17T19:30:14.229Z,3.80
2023-03-17T19:32:41.740Z,3.80
2023-03-17T19:35:09.712Z,3.90
2023-03-17T19:37:38.164Z,3.90
2023-03-17T19:40:08.756Z,3.80
2023-03-17T19:42:36.474Z,3.70
2023-03-17T19:45:04.759Z,3.50
2023-03-17T19:47:32.085Z,3.50
2023-03-17T19:49:59.340Z,3.40
2023-03-17T19:52:26.762Z,3.30
2023-03-17T19:54:53.930Z,3.10
2023-03-17T19:57:21.311Z,3.10
2023-03-17T19:59:48.533Z,3.10
2023-03-17T20:02:16.952Z,3.20
2023-03-17T20:04:44.746Z,3.30
2023-03-17T20:07:12.121Z,3.40
2023-03-17T20:09:39.461Z,3.50
2023-03-17T20:12:07.254Z,3.50
2023-03-17T20:14:34.679Z,3.40
2023-03-17T20:17:02.043Z,3.40
2023-03-17T20:19:29.327Z,3.40
2023-03-17T20:21:58.569Z,3.30
2023-03-17T20:24:27.143Z,3.20
2023-03-17T20:26:56.859Z,3.10
2023-03-17T20:29:24.344Z,3.00
2023-03-17T20:31:51.734Z,3.10
2023-03-17T20:34:18.906Z,3.10
2023-03-17T20:36:46.850Z,2.90
2023-03-17T20:39:19.762Z,3.00
2023-03-17T20:41:48.438Z,2.90
2023-03-17T20:44:15.910Z,2.80
2023-03-17T20:46:43.149Z,2.60
2023-03-17T20:49:11.838Z,2.50
2023-03-17T20:51:40.058Z,2.50
2023-03-17T20:54:10.914Z,2.50
2023-03-17T20:56:38.288Z,2.40
2023-03-17T20:59:09.551Z,2.40
2023-03-17T21:01:38.859Z,2.40
2023-03-17T21:04:09.135Z,2.40
2023-03-17T21:06:37.569Z,2.40
2023-03-17T21:09:06.089Z,2.40
2023-03-17T21:11:33.895Z,2.40
2023-03-17T21:14:03.452Z,2.50
2023-03-17T21:16:31.206Z,2.60
2023-03-17T21:18:59.143Z,2.60
2023-03-17T21:21:27.151Z,2.60
2023-03-17T21:23:55.578Z,2.50
2023-03-17T21:26:23.032Z,2.50
2023-03-17T21:28:50.521Z,2.30
2023-03-17T21:31:17.769Z,2.10
2023-03-17T21:33:48.419Z,2.00
2023-03-17T21:36:16.279Z,1.90
2023-03-17T21:38:43.758Z,1.90
2023-03-17T21:41:32.208Z,2.00
2023-03-17T21:44:00.525Z,2.10
2023-03-17T21:46:28.138Z,2.00
2023-03-17T21:48:56.081Z,1.90
2023-03-17T21:51:23.707Z,1.90
2023-03-17T21:53:51.463Z,1.80
2023-03-17T21:56:20.536Z,1.80
2023-03-17T21:58:49.148Z,1.70
2023-03-17T22:01:17.493Z,1.70
2023-03-17T22:03:45.040Z,1.70
2023-03-17T22:06:13.720Z,1.70
2023-03-17T22:08:41.281Z,1.70
2023-03-17T22:11:14.530Z,1.50
2023-03-17T22:13:43.105Z,1.40
2023-03-17T22:16:12.830Z,1.40
2023-03-17T22:18:40.620Z,1.30
2023-03-17T22:21:10.139Z,1.20
2023-03-17T22:23:42.363Z,1.10
2023-03-17T22:26:13.370Z,1.10
2023-03-17T22:28:41.039Z,1.10
2023-03-17T22:31:22.224Z,1.20
2023-03-17T22:33:52.617Z,1.20
2023-03-17T22:36:20.289Z,1.30
2023-03-17T22:38:47.763Z,1.40
2023-03-17T22:41:17.534Z,1.40
2023-03-17T22:43:45.399Z,1.50
2023-03-17T22:46:13.890Z,1.50
2023-03-17T22:48:41.480Z,1.50
2023-03-17T22:51:11.231Z,1.50
2023-03-17T22:53:39.320Z,1.60
2023-03-17T22:56:07.968Z,1.60
2023-03-17T22:58:35.842Z,1.60
2023-03-17T23:01:04.011Z,1.70
2023-03-17T23:03:31.968Z,1.60
2023-03-17T23:06:00.874Z,1.40
2023-03-17T23:08:30.144Z,1.30
2023-03-17T23:10:59.542Z,1.10
2023-03-17T23:13:27.667Z,1.10
2023-03-17T23:15:55.063Z,1.20
2023-03-17T23:18:23.079Z,1.10
2023-03-17T23:20:50.684Z,1.00
2023-03-17T23:23:18.150Z,1.00
2023-03-17T23:25:45.388Z,1.10
2023-03-17T23:28:13.207Z,1.10
2023-03-17T23:30:41.438Z,1.20
2023-03-17T23:33:09.400Z,1.00
2023-03-17T23:35:36.777Z,0.80
2023-03-17T23:38:04.329Z,0.60
2023-03-17T23:40:32.779Z,0.40
2023-03-17T23:43:00.436Z,0.20
2023-03-17T23:45:28.063Z,0.10
2023-03-17T23:47:57.498Z,0.10
2023-03-17T23:50:24.765Z,0.10
2023-03-17T23:52:52.193Z,0.30
2023-03-17T23:55:19.493Z,0.30
2023-03-17T23:57:46.780Z,0.40
